sensor_id;sensor_type;location;lat;lon;timestamp;P1;durP1;ratioP1;P2;durP2;ratioP2
12681;SDS011;6405;59.208;18.216;2022-08-03T00:01:05;3.20;;;1.97;;
12681;SDS011;6405;59.208;18.216;2022-08-03T00:03:32;4.17;;;1.50;;
12681;SDS011;6405;59.208;18.216;2022-08-03T00:05:58;2.67;;;1.77;;
12681;SDS011;6405;59.208;18.216;2022-08-03T00:08:25;3.30;;;1.90;;
12681;SDS011;6405;59.208;18.216;2022-08-03T00:10:50;2.97;;;1.90;;
12681;SDS011;6405;59.208;18.216;2022-08-03T00:13:16;2.27;;;1.83;;
12681;SDS011;6405;59.208;18.216;2022-08-03T00:15:45;2.93;;;1.80;;
12681;SDS011;6405;59.208;18.216;2022-08-03T00:18:11;2.90;;;1.63;;
12681;SDS011;6405;59.208;18.216;2022-08-03T00:20:37;3.17;;;1.60;;
12681;SDS011;6405;59.208;18.216;2022-08-03T00:23:03;2.83;;;1.40;;
12681;SDS011;6405;59.208;18.216;2022-08-03T00:25:29;2.33;;;1.73;;
12681;SDS011;6405;59.208;18.216;2022-08-03T00:27:56;2.40;;;1.23;;
12681;SDS011;6405;59.208;18.216;2022-08-03T00:30:23;2.97;;;1.70;;
12681;SDS011;6405;59.208;18.216;2022-08-03T00:32:50;3.33;;;1.80;;
12681;SDS011;6405;59.208;18.216;2022-08-03T00:35:16;1.70;;;1.33;;
12681;SDS011;6405;59.208;18.216;2022-08-03T00:37:43;3.27;;;1.47;;
12681;SDS011;6405;59.208;18.216;2022-08-03T00:40:11;2.23;;;1.70;;
12681;SDS011;6405;59.208;18.216;2022-08-03T00:45:34;4.17;;;1.50;;
12681;SDS011;6405;59.208;18.216;2022-08-03T00:48:02;3.17;;;1.70;;
12681;SDS011;6405;59.208;18.216;2022-08-03T00:50:33;2.23;;;1.57;;
12681;SDS011;6405;59.208;18.216;2022-08-03T00:53:02;4.37;;;1.67;;
12681;SDS011;6405;59.208;18.216;2022-08-03T00:55:30;3.47;;;1.30;;
12681;SDS011;6405;59.208;18.216;2022-08-03T00:57:57;3.97;;;1.77;;
12681;SDS011;6405;59.208;18.216;2022-08-03T01:00:26;4.13;;;1.50;;
12681;SDS011;6405;59.208;18.216;2022-08-03T01:02:52;2.10;;;1.30;;
12681;SDS011;6405;59.208;18.216;2022-08-03T01:05:20;3.83;;;1.80;;
12681;SDS011;6405;59.208;18.216;2022-08-03T01:10:16;2.43;;;1.07;;
12681;SDS011;6405;59.208;18.216;2022-08-03T01:15:39;3.17;;;1.17;;
12681;SDS011;6405;59.208;18.216;2022-08-03T01:20:39;2.17;;;1.03;;
12681;SDS011;6405;59.208;18.216;2022-08-03T01:23:17;2.00;;;1.40;;
12681;SDS011;6405;59.208;18.216;2022-08-03T01:26:16;1.90;;;1.00;;
12681;SDS011;6405;59.208;18.216;2022-08-03T01:31:42;3.13;;;1.13;;
12681;SDS011;6405;59.208;18.216;2022-08-03T01:34:13;2.20;;;1.33;;
12681;SDS011;6405;59.208;18.216;2022-08-03T01:36:43;1.20;;;1.00;;
12681;SDS011;6405;59.208;18.216;2022-08-03T01:39:14;2.87;;;1.33;;
12681;SDS011;6405;59.208;18.216;2022-08-03T01:41:47;2.93;;;1.00;;
12681;SDS011;6405;59.208;18.216;2022-08-03T01:44:16;1.67;;;0.83;;
12681;SDS011;6405;59.208;18.216;2022-08-03T01:46:44;1.23;;;0.90;;
12681;SDS011;6405;59.208;18.216;2022-08-03T01:49:14;1.07;;;0.80;;
12681;SDS011;6405;59.208;18.216;2022-08-03T01:51:41;4.80;;;1.30;;
12681;SDS011;6405;59.208;18.216;2022-08-03T01:54:10;2.17;;;1.10;;
12681;SDS011;6405;59.208;18.216;2022-08-03T01:56:38;2.80;;;1.10;;
12681;SDS011;6405;59.208;18.216;2022-08-03T01:59:07;2.47;;;1.03;;
12681;SDS011;6405;59.208;18.216;2022-08-03T02:01:36;2.17;;;1.20;;
12681;SDS011;6405;59.208;18.216;2022-08-03T02:04:04;1.67;;;0.83;;
12681;SDS011;6405;59.208;18.216;2022-08-03T02:06:32;5.90;;;1.27;;
12681;SDS011;6405;59.208;18.216;2022-08-03T02:09:00;1.83;;;0.90;;
12681;SDS011;6405;59.208;18.216;2022-08-03T02:11:29;4.17;;;1.27;;
12681;SDS011;6405;59.208;18.216;2022-08-03T02:13:57;2.70;;;1.23;;
12681;SDS011;6405;59.208;18.216;2022-08-03T02:16:25;1.37;;;1.00;;
12681;SDS011;6405;59.208;18.216;2022-08-03T02:18:55;1.73;;;1.13;;
12681;SDS011;6405;59.208;18.216;2022-08-03T02:21:24;2.30;;;1.20;;
12681;SDS011;6405;59.208;18.216;2022-08-03T02:23:52;3.17;;;1.20;;
12681;SDS011;6405;59.208;18.216;2022-08-03T02:26:19;3.43;;;1.40;;
12681;SDS011;6405;59.208;18.216;2022-08-03T02:28:49;2.20;;;1.37;;
12681;SDS011;6405;59.208;18.216;2022-08-03T02:31:19;2.07;;;1.10;;
12681;SDS011;6405;59.208;18.216;2022-08-03T02:33:53;1.77;;;1.03;;
12681;SDS011;6405;59.208;18.216;2022-08-03T02:36:27;3.53;;;1.37;;
12681;SDS011;6405;59.208;18.216;2022-08-03T02:38:57;3.10;;;1.20;;
12681;SDS011;6405;59.208;18.216;2022-08-03T02:41:30;4.00;;;1.37;;
12681;SDS011;6405;59.208;18.216;2022-08-03T02:44:03;1.50;;;1.20;;
12681;SDS011;6405;59.208;18.216;2022-08-03T02:46:35;2.57;;;1.20;;
12681;SDS011;6405;59.208;18.216;2022-08-03T02:49:04;1.50;;;1.13;;
12681;SDS011;6405;59.208;18.216;2022-08-03T02:51:32;3.57;;;1.37;;
12681;SDS011;6405;59.208;18.216;2022-08-03T02:54:01;2.33;;;1.20;;
12681;SDS011;6405;59.208;18.216;2022-08-03T02:56:30;4.73;;;1.40;;
12681;SDS011;6405;59.208;18.216;2022-08-03T02:58:58;4.40;;;1.30;;
12681;SDS011;6405;59.208;18.216;2022-08-03T03:01:27;2.27;;;1.30;;
12681;SDS011;6405;59.208;18.216;2022-08-03T03:03:55;1.13;;;1.00;;
12681;SDS011;6405;59.208;18.216;2022-08-03T03:06:23;1.77;;;1.23;;
12681;SDS011;6405;59.208;18.216;2022-08-03T03:08:51;3.00;;;1.30;;
12681;SDS011;6405;59.208;18.216;2022-08-03T03:11:20;2.03;;;1.10;;
12681;SDS011;6405;59.208;18.216;2022-08-03T03:13:48;2.53;;;1.30;;
12681;SDS011;6405;59.208;18.216;2022-08-03T03:16:15;1.60;;;1.40;;
12681;SDS011;6405;59.208;18.216;2022-08-03T03:18:44;2.83;;;1.43;;
12681;SDS011;6405;59.208;18.216;2022-08-03T03:21:12;1.37;;;0.90;;
12681;SDS011;6405;59.208;18.216;2022-08-03T03:23:42;3.40;;;1.20;;
12681;SDS011;6405;59.208;18.216;2022-08-03T03:26:09;3.77;;;1.10;;
12681;SDS011;6405;59.208;18.216;2022-08-03T03:28:38;1.03;;;0.90;;
12681;SDS011;6405;59.208;18.216;2022-08-03T03:31:06;2.70;;;1.27;;
12681;SDS011;6405;59.208;18.216;2022-08-03T03:33:33;2.87;;;1.40;;
12681;SDS011;6405;59.208;18.216;2022-08-03T03:35:59;1.93;;;1.30;;
12681;SDS011;6405;59.208;18.216;2022-08-03T03:38:26;2.03;;;1.07;;
12681;SDS011;6405;59.208;18.216;2022-08-03T03:40:52;3.50;;;1.10;;
12681;SDS011;6405;59.208;18.216;2022-08-03T03:43:21;1.77;;;1.33;;
12681;SDS011;6405;59.208;18.216;2022-08-03T03:45:48;3.90;;;1.73;;
12681;SDS011;6405;59.208;18.216;2022-08-03T03:48:16;2.03;;;1.10;;
12681;SDS011;6405;59.208;18.216;2022-08-03T03:50:45;1.43;;;1.10;;
12681;SDS011;6405;59.208;18.216;2022-08-03T03:53:13;1.87;;;1.40;;
12681;SDS011;6405;59.208;18.216;2022-08-03T03:55:40;2.20;;;1.20;;
12681;SDS011;6405;59.208;18.216;2022-08-03T03:58:07;1.67;;;1.40;;
12681;SDS011;6405;59.208;18.216;2022-08-03T04:00:33;3.20;;;1.50;;
12681;SDS011;6405;59.208;18.216;2022-08-03T04:03:01;1.83;;;1.23;;
12681;SDS011;6405;59.208;18.216;2022-08-03T04:05:28;2.00;;;1.33;;
12681;SDS011;6405;59.208;18.216;2022-08-03T04:08:14;1.60;;;1.17;;
12681;SDS011;6405;59.208;18.216;2022-08-03T04:13:34;1.70;;;1.33;;
12681;SDS011;6405;59.208;18.216;2022-08-03T04:16:03;1.40;;;1.30;;
12681;SDS011;6405;59.208;18.216;2022-08-03T04:18:32;1.40;;;1.00;;
12681;SDS011;6405;59.208;18.216;2022-08-03T04:21:04;2.27;;;1.50;;
12681;SDS011;6405;59.208;18.216;2022-08-03T04:23:34;2.27;;;1.10;;
12681;SDS011;6405;59.208;18.216;2022-08-03T04:26:07;2.13;;;1.30;;
12681;SDS011;6405;59.208;18.216;2022-08-03T04:28:36;1.73;;;1.40;;
12681;SDS011;6405;59.208;18.216;2022-08-03T04:31:05;2.10;;;1.40;;
12681;SDS011;6405;59.208;18.216;2022-08-03T04:33:33;1.57;;;1.13;;
12681;SDS011;6405;59.208;18.216;2022-08-03T04:36:03;3.60;;;1.30;;
12681;SDS011;6405;59.208;18.216;2022-08-03T04:38:34;1.63;;;1.00;;
12681;SDS011;6405;59.208;18.216;2022-08-03T04:41:03;2.97;;;1.57;;
12681;SDS011;6405;59.208;18.216;2022-08-03T04:43:32;2.57;;;1.30;;
12681;SDS011;6405;59.208;18.216;2022-08-03T04:46:00;1.20;;;1.10;;
12681;SDS011;6405;59.208;18.216;2022-08-03T04:48:29;2.83;;;1.37;;
12681;SDS011;6405;59.208;18.216;2022-08-03T04:50:56;2.37;;;1.20;;
12681;SDS011;6405;59.208;18.216;2022-08-03T04:53:23;1.73;;;1.10;;
12681;SDS011;6405;59.208;18.216;2022-08-03T04:55:49;1.67;;;1.43;;
12681;SDS011;6405;59.208;18.216;2022-08-03T04:58:16;1.63;;;1.17;;
12681;SDS011;6405;59.208;18.216;2022-08-03T05:00:42;5.37;;;1.20;;
12681;SDS011;6405;59.208;18.216;2022-08-03T05:03:10;1.57;;;1.17;;
12681;SDS011;6405;59.208;18.216;2022-08-03T05:05:37;1.50;;;0.90;;
12681;SDS011;6405;59.208;18.216;2022-08-03T05:08:03;1.27;;;0.93;;
12681;SDS011;6405;59.208;18.216;2022-08-03T05:10:30;2.13;;;1.27;;
12681;SDS011;6405;59.208;18.216;2022-08-03T05:12:57;2.73;;;1.30;;
12681;SDS011;6405;59.208;18.216;2022-08-03T05:15:24;1.10;;;1.00;;
12681;SDS011;6405;59.208;18.216;2022-08-03T05:17:51;6.83;;;1.40;;
12681;SDS011;6405;59.208;18.216;2022-08-03T05:20:18;2.20;;;1.10;;
12681;SDS011;6405;59.208;18.216;2022-08-03T05:22:44;1.73;;;0.90;;
12681;SDS011;6405;59.208;18.216;2022-08-03T05:25:10;2.30;;;1.30;;
12681;SDS011;6405;59.208;18.216;2022-08-03T05:27:36;3.33;;;1.17;;
12681;SDS011;6405;59.208;18.216;2022-08-03T05:30:03;1.53;;;1.10;;
12681;SDS011;6405;59.208;18.216;2022-08-03T05:32:30;2.70;;;1.40;;
12681;SDS011;6405;59.208;18.216;2022-08-03T05:34:58;2.90;;;1.33;;
12681;SDS011;6405;59.208;18.216;2022-08-03T05:37:24;2.53;;;1.17;;
12681;SDS011;6405;59.208;18.216;2022-08-03T05:39:51;2.40;;;1.33;;
12681;SDS011;6405;59.208;18.216;2022-08-03T05:42:18;1.57;;;1.20;;
12681;SDS011;6405;59.208;18.216;2022-08-03T05:44:45;2.97;;;1.17;;
12681;SDS011;6405;59.208;18.216;2022-08-03T05:47:12;1.83;;;0.97;;
12681;SDS011;6405;59.208;18.216;2022-08-03T05:49:40;2.60;;;1.27;;
12681;SDS011;6405;59.208;18.216;2022-08-03T05:52:07;2.03;;;1.00;;
12681;SDS011;6405;59.208;18.216;2022-08-03T05:54:34;1.37;;;1.27;;
12681;SDS011;6405;59.208;18.216;2022-08-03T05:57:01;1.87;;;1.20;;
12681;SDS011;6405;59.208;18.216;2022-08-03T05:59:27;4.30;;;1.30;;
12681;SDS011;6405;59.208;18.216;2022-08-03T06:01:53;4.17;;;1.20;;
12681;SDS011;6405;59.208;18.216;2022-08-03T06:04:20;1.23;;;1.07;;
12681;SDS011;6405;59.208;18.216;2022-08-03T06:06:47;1.77;;;1.00;;
12681;SDS011;6405;59.208;18.216;2022-08-03T06:09:16;1.30;;;1.20;;
12681;SDS011;6405;59.208;18.216;2022-08-03T06:11:43;2.73;;;1.33;;
12681;SDS011;6405;59.208;18.216;2022-08-03T06:14:10;1.67;;;1.13;;
12681;SDS011;6405;59.208;18.216;2022-08-03T06:16:36;1.07;;;0.87;;
12681;SDS011;6405;59.208;18.216;2022-08-03T06:19:02;1.93;;;0.97;;
12681;SDS011;6405;59.208;18.216;2022-08-03T06:21:29;2.33;;;0.77;;
12681;SDS011;6405;59.208;18.216;2022-08-03T06:23:56;2.77;;;1.30;;
12681;SDS011;6405;59.208;18.216;2022-08-03T06:26:23;2.30;;;1.00;;
12681;SDS011;6405;59.208;18.216;2022-08-03T06:28:52;1.13;;;0.97;;
12681;SDS011;6405;59.208;18.216;2022-08-03T06:31:20;1.17;;;1.03;;
12681;SDS011;6405;59.208;18.216;2022-08-03T06:33:48;1.80;;;1.17;;
12681;SDS011;6405;59.208;18.216;2022-08-03T06:36:14;0.80;;;0.60;;
12681;SDS011;6405;59.208;18.216;2022-08-03T06:38:41;2.20;;;1.00;;
12681;SDS011;6405;59.208;18.216;2022-08-03T06:41:07;1.93;;;1.17;;
12681;SDS011;6405;59.208;18.216;2022-08-03T06:43:34;1.23;;;1.10;;
12681;SDS011;6405;59.208;18.216;2022-08-03T06:46:02;1.17;;;0.90;;
12681;SDS011;6405;59.208;18.216;2022-08-03T06:48:30;2.60;;;1.20;;
12681;SDS011;6405;59.208;18.216;2022-08-03T06:50:57;4.07;;;1.40;;
12681;SDS011;6405;59.208;18.216;2022-08-03T06:53:23;3.40;;;1.20;;
12681;SDS011;6405;59.208;18.216;2022-08-03T06:55:50;2.07;;;1.37;;
12681;SDS011;6405;59.208;18.216;2022-08-03T06:58:18;1.30;;;1.10;;
12681;SDS011;6405;59.208;18.216;2022-08-03T07:00:45;2.83;;;1.10;;
12681;SDS011;6405;59.208;18.216;2022-08-03T07:03:11;1.50;;;0.93;;
12681;SDS011;6405;59.208;18.216;2022-08-03T07:05:37;1.80;;;1.23;;
12681;SDS011;6405;59.208;18.216;2022-08-03T07:08:03;1.83;;;1.10;;
12681;SDS011;6405;59.208;18.216;2022-08-03T07:10:29;1.50;;;1.00;;
12681;SDS011;6405;59.208;18.216;2022-08-03T07:12:55;1.87;;;1.07;;
12681;SDS011;6405;59.208;18.216;2022-08-03T07:15:22;1.30;;;0.90;;
12681;SDS011;6405;59.208;18.216;2022-08-03T07:17:50;2.03;;;1.10;;
12681;SDS011;6405;59.208;18.216;2022-08-03T07:20:17;1.60;;;1.30;;
12681;SDS011;6405;59.208;18.216;2022-08-03T07:22:43;2.93;;;1.13;;
12681;SDS011;6405;59.208;18.216;2022-08-03T07:25:10;2.23;;;1.43;;
12681;SDS011;6405;59.208;18.216;2022-08-03T07:27:37;1.10;;;1.00;;
12681;SDS011;6405;59.208;18.216;2022-08-03T07:30:08;2.30;;;1.03;;
12681;SDS011;6405;59.208;18.216;2022-08-03T07:32:35;1.63;;;0.90;;
12681;SDS011;6405;59.208;18.216;2022-08-03T07:35:03;1.77;;;1.10;;
12681;SDS011;6405;59.208;18.216;2022-08-03T07:37:31;1.77;;;1.10;;
12681;SDS011;6405;59.208;18.216;2022-08-03T07:39:57;2.30;;;0.90;;
12681;SDS011;6405;59.208;18.216;2022-08-03T07:42:25;2.17;;;1.17;;
12681;SDS011;6405;59.208;18.216;2022-08-03T07:44:55;1.73;;;1.20;;
12681;SDS011;6405;59.208;18.216;2022-08-03T07:47:23;2.33;;;1.03;;
12681;SDS011;6405;59.208;18.216;2022-08-03T07:49:51;1.80;;;1.30;;
12681;SDS011;6405;59.208;18.216;2022-08-03T07:52:17;2.20;;;1.20;;
12681;SDS011;6405;59.208;18.216;2022-08-03T07:55:03;1.10;;;1.00;;
12681;SDS011;6405;59.208;18.216;2022-08-03T07:57:31;2.17;;;1.23;;
12681;SDS011;6405;59.208;18.216;2022-08-03T07:59:59;1.53;;;1.00;;
12681;SDS011;6405;59.208;18.216;2022-08-03T08:02:24;2.13;;;1.30;;
12681;SDS011;6405;59.208;18.216;2022-08-03T08:04:51;2.17;;;1.17;;
12681;SDS011;6405;59.208;18.216;2022-08-03T08:07:17;3.10;;;1.43;;
12681;SDS011;6405;59.208;18.216;2022-08-03T08:09:44;1.90;;;1.10;;
12681;SDS011;6405;59.208;18.216;2022-08-03T08:12:11;1.17;;;1.07;;
12681;SDS011;6405;59.208;18.216;2022-08-03T08:14:38;2.77;;;1.10;;
12681;SDS011;6405;59.208;18.216;2022-08-03T08:17:05;1.43;;;1.07;;
12681;SDS011;6405;59.208;18.216;2022-08-03T08:19:32;1.57;;;1.10;;
12681;SDS011;6405;59.208;18.216;2022-08-03T08:21:58;2.10;;;1.20;;
12681;SDS011;6405;59.208;18.216;2022-08-03T08:24:25;4.70;;;1.17;;
12681;SDS011;6405;59.208;18.216;2022-08-03T08:26:52;1.50;;;1.10;;
12681;SDS011;6405;59.208;18.216;2022-08-03T08:29:18;1.27;;;1.10;;
12681;SDS011;6405;59.208;18.216;2022-08-03T08:31:48;2.07;;;1.20;;
12681;SDS011;6405;59.208;18.216;2022-08-03T08:34:15;4.47;;;1.50;;
12681;SDS011;6405;59.208;18.216;2022-08-03T08:36:43;3.50;;;1.30;;
12681;SDS011;6405;59.208;18.216;2022-08-03T08:39:10;2.93;;;1.20;;
12681;SDS011;6405;59.208;18.216;2022-08-03T08:41:37;2.03;;;1.20;;
12681;SDS011;6405;59.208;18.216;2022-08-03T08:44:04;2.33;;;1.30;;
12681;SDS011;6405;59.208;18.216;2022-08-03T08:46:32;3.47;;;1.17;;
12681;SDS011;6405;59.208;18.216;2022-08-03T08:48:59;2.17;;;1.23;;
12681;SDS011;6405;59.208;18.216;2022-08-03T08:51:27;1.13;;;1.03;;
12681;SDS011;6405;59.208;18.216;2022-08-03T08:53:56;2.30;;;1.03;;
12681;SDS011;6405;59.208;18.216;2022-08-03T08:56:26;2.60;;;1.57;;
12681;SDS011;6405;59.208;18.216;2022-08-03T08:58:57;1.90;;;1.30;;
12681;SDS011;6405;59.208;18.216;2022-08-03T09:01:26;2.50;;;1.33;;
12681;SDS011;6405;59.208;18.216;2022-08-03T09:03:52;1.70;;;1.10;;
12681;SDS011;6405;59.208;18.216;2022-08-03T09:06:20;1.53;;;1.03;;
12681;SDS011;6405;59.208;18.216;2022-08-03T09:08:47;1.53;;;1.10;;
12681;SDS011;6405;59.208;18.216;2022-08-03T09:11:13;2.50;;;1.30;;
12681;SDS011;6405;59.208;18.216;2022-08-03T09:13:39;2.20;;;1.23;;
12681;SDS011;6405;59.208;18.216;2022-08-03T09:16:09;1.20;;;1.10;;
12681;SDS011;6405;59.208;18.216;2022-08-03T09:18:38;3.23;;;1.07;;
12681;SDS011;6405;59.208;18.216;2022-08-03T09:21:17;16.87;;;3.83;;
12681;SDS011;6405;59.208;18.216;2022-08-03T09:23:52;7.07;;;2.33;;
12681;SDS011;6405;59.208;18.216;2022-08-03T09:26:27;6.17;;;2.10;;
12681;SDS011;6405;59.208;18.216;2022-08-03T09:31:35;2.67;;;1.30;;
12681;SDS011;6405;59.208;18.216;2022-08-03T09:34:06;5.73;;;1.83;;
12681;SDS011;6405;59.208;18.216;2022-08-03T09:36:46;2.10;;;1.60;;
12681;SDS011;6405;59.208;18.216;2022-08-03T09:39:15;2.13;;;1.47;;
12681;SDS011;6405;59.208;18.216;2022-08-03T09:41:45;3.97;;;1.50;;
12681;SDS011;6405;59.208;18.216;2022-08-03T09:44:14;3.73;;;1.70;;
12681;SDS011;6405;59.208;18.216;2022-08-03T09:46:47;2.83;;;1.70;;
12681;SDS011;6405;59.208;18.216;2022-08-03T09:49:15;2.10;;;1.40;;
12681;SDS011;6405;59.208;18.216;2022-08-03T09:51:43;2.90;;;1.50;;
12681;SDS011;6405;59.208;18.216;2022-08-03T09:54:11;3.07;;;1.40;;
12681;SDS011;6405;59.208;18.216;2022-08-03T09:56:45;2.30;;;1.30;;
12681;SDS011;6405;59.208;18.216;2022-08-03T09:59:21;2.60;;;1.27;;
12681;SDS011;6405;59.208;18.216;2022-08-03T10:01:49;9.90;;;2.03;;
12681;SDS011;6405;59.208;18.216;2022-08-03T10:04:17;5.60;;;1.60;;
12681;SDS011;6405;59.208;18.216;2022-08-03T10:06:43;2.07;;;1.30;;
12681;SDS011;6405;59.208;18.216;2022-08-03T10:09:13;1.67;;;1.10;;
12681;SDS011;6405;59.208;18.216;2022-08-03T10:11:41;2.20;;;1.20;;
12681;SDS011;6405;59.208;18.216;2022-08-03T10:14:10;2.20;;;1.33;;
12681;SDS011;6405;59.208;18.216;2022-08-03T10:16:43;1.73;;;1.10;;
12681;SDS011;6405;59.208;18.216;2022-08-03T10:19:10;2.33;;;1.40;;
12681;SDS011;6405;59.208;18.216;2022-08-03T10:21:37;2.13;;;1.57;;
12681;SDS011;6405;59.208;18.216;2022-08-03T10:24:07;2.77;;;1.30;;
12681;SDS011;6405;59.208;18.216;2022-08-03T10:26:39;4.20;;;1.10;;
12681;SDS011;6405;59.208;18.216;2022-08-03T10:29:11;2.80;;;1.40;;
12681;SDS011;6405;59.208;18.216;2022-08-03T10:31:42;2.33;;;1.30;;
12681;SDS011;6405;59.208;18.216;2022-08-03T10:34:16;2.87;;;1.63;;
12681;SDS011;6405;59.208;18.216;2022-08-03T10:36:48;1.23;;;1.13;;
12681;SDS011;6405;59.208;18.216;2022-08-03T10:39:23;3.70;;;1.47;;
12681;SDS011;6405;59.208;18.216;2022-08-03T10:41:53;1.30;;;1.20;;
12681;SDS011;6405;59.208;18.216;2022-08-03T10:44:24;2.30;;;1.33;;
12681;SDS011;6405;59.208;18.216;2022-08-03T10:46:56;2.20;;;1.40;;
12681;SDS011;6405;59.208;18.216;2022-08-03T10:49:22;2.17;;;1.60;;
12681;SDS011;6405;59.208;18.216;2022-08-03T10:51:49;3.13;;;1.50;;
12681;SDS011;6405;59.208;18.216;2022-08-03T10:54:36;1.77;;;1.43;;
12681;SDS011;6405;59.208;18.216;2022-08-03T11:00:14;1.63;;;1.30;;
12681;SDS011;6405;59.208;18.216;2022-08-03T11:03:04;7.20;;;1.73;;
12681;SDS011;6405;59.208;18.216;2022-08-03T11:05:42;1.67;;;0.93;;
12681;SDS011;6405;59.208;18.216;2022-08-03T11:11:02;2.20;;;1.30;;
12681;SDS011;6405;59.208;18.216;2022-08-03T11:13:57;2.63;;;1.53;;
12681;SDS011;6405;59.208;18.216;2022-08-03T11:16:30;3.73;;;1.67;;
12681;SDS011;6405;59.208;18.216;2022-08-03T11:19:02;1.30;;;1.20;;
12681;SDS011;6405;59.208;18.216;2022-08-03T11:35:14;4.87;;;1.40;;
12681;SDS011;6405;59.208;18.216;2022-08-03T11:43:08;1.93;;;1.30;;
12681;SDS011;6405;59.208;18.216;2022-08-03T11:45:58;3.67;;;1.30;;
12681;SDS011;6405;59.208;18.216;2022-08-03T11:48:47;3.23;;;1.67;;
12681;SDS011;6405;59.208;18.216;2022-08-03T11:53:54;4.87;;;1.37;;
12681;SDS011;6405;59.208;18.216;2022-08-03T11:56:26;2.33;;;1.60;;
12681;SDS011;6405;59.208;18.216;2022-08-03T11:58:55;3.53;;;1.37;;
12681;SDS011;6405;59.208;18.216;2022-08-03T12:01:24;3.60;;;1.73;;
12681;SDS011;6405;59.208;18.216;2022-08-03T12:03:51;2.53;;;1.33;;
12681;SDS011;6405;59.208;18.216;2022-08-03T12:06:19;2.53;;;1.70;;
12681;SDS011;6405;59.208;18.216;2022-08-03T12:08:46;4.70;;;1.67;;
12681;SDS011;6405;59.208;18.216;2022-08-03T12:11:13;2.23;;;1.30;;
12681;SDS011;6405;59.208;18.216;2022-08-03T12:13:45;3.67;;;1.60;;
12681;SDS011;6405;59.208;18.216;2022-08-03T12:16:23;2.50;;;1.60;;
12681;SDS011;6405;59.208;18.216;2022-08-03T12:19:09;1.53;;;1.23;;
12681;SDS011;6405;59.208;18.216;2022-08-03T12:21:44;2.17;;;1.23;;
12681;SDS011;6405;59.208;18.216;2022-08-03T12:24:14;2.50;;;1.50;;
12681;SDS011;6405;59.208;18.216;2022-08-03T12:26:42;3.27;;;1.50;;
12681;SDS011;6405;59.208;18.216;2022-08-03T12:29:17;1.47;;;1.20;;
12681;SDS011;6405;59.208;18.216;2022-08-03T12:31:46;2.30;;;1.33;;
12681;SDS011;6405;59.208;18.216;2022-08-03T12:34:14;2.40;;;1.43;;
12681;SDS011;6405;59.208;18.216;2022-08-03T12:36:58;2.03;;;1.40;;
12681;SDS011;6405;59.208;18.216;2022-08-03T12:39:28;2.00;;;1.20;;
12681;SDS011;6405;59.208;18.216;2022-08-03T12:41:55;2.73;;;1.10;;
12681;SDS011;6405;59.208;18.216;2022-08-03T12:44:28;2.40;;;1.30;;
12681;SDS011;6405;59.208;18.216;2022-08-03T12:47:00;2.10;;;1.30;;
12681;SDS011;6405;59.208;18.216;2022-08-03T12:49:27;1.73;;;1.23;;
12681;SDS011;6405;59.208;18.216;2022-08-03T12:51:55;2.80;;;1.40;;
12681;SDS011;6405;59.208;18.216;2022-08-03T12:54:26;2.17;;;1.33;;
12681;SDS011;6405;59.208;18.216;2022-08-03T12:57:01;3.27;;;1.83;;
12681;SDS011;6405;59.208;18.216;2022-08-03T12:59:30;1.70;;;1.20;;
12681;SDS011;6405;59.208;18.216;2022-08-03T13:02:02;2.80;;;1.30;;
12681;SDS011;6405;59.208;18.216;2022-08-03T13:04:31;3.33;;;1.33;;
12681;SDS011;6405;59.208;18.216;2022-08-03T13:07:08;1.93;;;1.40;;
12681;SDS011;6405;59.208;18.216;2022-08-03T13:09:40;3.63;;;1.63;;
12681;SDS011;6405;59.208;18.216;2022-08-03T13:12:13;1.80;;;1.30;;
12681;SDS011;6405;59.208;18.216;2022-08-03T13:14:44;3.60;;;1.93;;
12681;SDS011;6405;59.208;18.216;2022-08-03T13:17:14;3.80;;;1.40;;
12681;SDS011;6405;59.208;18.216;2022-08-03T13:19:44;2.30;;;1.30;;
12681;SDS011;6405;59.208;18.216;2022-08-03T13:22:15;3.20;;;1.33;;
12681;SDS011;6405;59.208;18.216;2022-08-03T13:24:50;4.07;;;1.60;;
12681;SDS011;6405;59.208;18.216;2022-08-03T13:27:19;3.30;;;1.63;;
12681;SDS011;6405;59.208;18.216;2022-08-03T13:29:46;2.73;;;1.60;;
12681;SDS011;6405;59.208;18.216;2022-08-03T13:32:12;2.50;;;1.33;;
12681;SDS011;6405;59.208;18.216;2022-08-03T13:34:39;2.37;;;1.83;;
12681;SDS011;6405;59.208;18.216;2022-08-03T13:37:06;3.93;;;1.70;;
12681;SDS011;6405;59.208;18.216;2022-08-03T13:39:33;3.17;;;1.80;;
12681;SDS011;6405;59.208;18.216;2022-08-03T13:42:00;3.77;;;1.60;;
12681;SDS011;6405;59.208;18.216;2022-08-03T13:44:27;3.03;;;1.97;;
12681;SDS011;6405;59.208;18.216;2022-08-03T13:46:54;2.83;;;1.63;;
12681;SDS011;6405;59.208;18.216;2022-08-03T13:49:20;4.47;;;2.30;;
12681;SDS011;6405;59.208;18.216;2022-08-03T13:51:46;3.60;;;2.07;;
12681;SDS011;6405;59.208;18.216;2022-08-03T13:54:13;3.50;;;1.90;;
12681;SDS011;6405;59.208;18.216;2022-08-03T13:56:39;2.53;;;1.70;;
12681;SDS011;6405;59.208;18.216;2022-08-03T13:59:07;7.73;;;1.87;;
12681;SDS011;6405;59.208;18.216;2022-08-03T14:01:36;3.73;;;1.60;;
12681;SDS011;6405;59.208;18.216;2022-08-03T14:04:03;4.67;;;2.27;;
12681;SDS011;6405;59.208;18.216;2022-08-03T14:06:29;3.90;;;2.23;;
12681;SDS011;6405;59.208;18.216;2022-08-03T14:08:56;5.40;;;2.53;;
12681;SDS011;6405;59.208;18.216;2022-08-03T14:11:24;3.53;;;2.17;;
12681;SDS011;6405;59.208;18.216;2022-08-03T14:13:51;4.37;;;2.10;;
12681;SDS011;6405;59.208;18.216;2022-08-03T14:16:18;3.37;;;1.83;;
12681;SDS011;6405;59.208;18.216;2022-08-03T14:18:45;2.43;;;1.67;;
12681;SDS011;6405;59.208;18.216;2022-08-03T14:21:12;5.03;;;1.73;;
12681;SDS011;6405;59.208;18.216;2022-08-03T14:23:38;3.90;;;2.40;;
12681;SDS011;6405;59.208;18.216;2022-08-03T14:26:06;2.67;;;1.87;;
12681;SDS011;6405;59.208;18.216;2022-08-03T14:28:34;3.03;;;1.90;;
12681;SDS011;6405;59.208;18.216;2022-08-03T14:31:00;3.10;;;2.37;;
12681;SDS011;6405;59.208;18.216;2022-08-03T14:33:27;4.03;;;2.30;;
12681;SDS011;6405;59.208;18.216;2022-08-03T14:35:55;6.73;;;2.77;;
12681;SDS011;6405;59.208;18.216;2022-08-03T14:38:23;5.50;;;2.33;;
12681;SDS011;6405;59.208;18.216;2022-08-03T14:40:50;3.70;;;2.63;;
12681;SDS011;6405;59.208;18.216;2022-08-03T14:43:18;3.97;;;1.83;;
12681;SDS011;6405;59.208;18.216;2022-08-03T14:45:48;5.83;;;2.20;;
12681;SDS011;6405;59.208;18.216;2022-08-03T14:48:18;7.90;;;2.07;;
12681;SDS011;6405;59.208;18.216;2022-08-03T14:50:47;4.33;;;2.53;;
12681;SDS011;6405;59.208;18.216;2022-08-03T14:53:14;2.73;;;1.87;;
12681;SDS011;6405;59.208;18.216;2022-08-03T14:55:45;4.63;;;2.13;;
12681;SDS011;6405;59.208;18.216;2022-08-03T14:58:14;4.67;;;2.67;;
12681;SDS011;6405;59.208;18.216;2022-08-03T15:00:41;5.47;;;1.97;;
12681;SDS011;6405;59.208;18.216;2022-08-03T15:03:08;3.90;;;1.73;;
12681;SDS011;6405;59.208;18.216;2022-08-03T15:05:35;4.57;;;2.00;;
12681;SDS011;6405;59.208;18.216;2022-08-03T15:08:02;4.53;;;2.50;;
12681;SDS011;6405;59.208;18.216;2022-08-03T15:10:27;3.97;;;1.93;;
12681;SDS011;6405;59.208;18.216;2022-08-03T15:12:54;3.90;;;2.10;;
12681;SDS011;6405;59.208;18.216;2022-08-03T15:15:19;4.60;;;2.07;;
12681;SDS011;6405;59.208;18.216;2022-08-03T15:17:46;4.77;;;2.10;;
12681;SDS011;6405;59.208;18.216;2022-08-03T15:20:13;5.33;;;2.07;;
12681;SDS011;6405;59.208;18.216;2022-08-03T15:22:39;5.40;;;2.03;;
12681;SDS011;6405;59.208;18.216;2022-08-03T15:25:06;5.87;;;2.03;;
12681;SDS011;6405;59.208;18.216;2022-08-03T15:27:32;6.90;;;1.93;;
12681;SDS011;6405;59.208;18.216;2022-08-03T15:29:59;4.60;;;2.10;;
12681;SDS011;6405;59.208;18.216;2022-08-03T15:32:26;4.57;;;1.90;;
12681;SDS011;6405;59.208;18.216;2022-08-03T15:34:52;4.27;;;2.40;;
12681;SDS011;6405;59.208;18.216;2022-08-03T15:37:20;6.93;;;2.20;;
12681;SDS011;6405;59.208;18.216;2022-08-03T15:39:48;6.30;;;1.90;;
12681;SDS011;6405;59.208;18.216;2022-08-03T15:42:14;4.53;;;2.20;;
12681;SDS011;6405;59.208;18.216;2022-08-03T15:44:42;3.37;;;1.93;;